Time;durP1;ratioP1;P1;durP2;ratioP2;P2;SDS_P1;SDS_P2;PMS_P1;PMS_P2;Temp;Humidity;BMP_temperature;BMP_pressure;BME280_temperature;BME280_humidity;BME280_pressure;Samples;Min_cycle;Max_cycle;Signal;HPM_P1;HPM_P2
2021/03/08 00:00:12;;;;;;;47.55;28.27;;;4.30;94.00;;;;;;5036710;28;20042;-76
2021/03/08 00:02:38;;;;;;;42.63;27.25;;;4.30;94.30;;;;;;5013191;28;20050;-76
2021/03/08 00:05:05;;;;;;;46.97;29.33;;;4.30;94.10;;;;;;5026503;28;20057;-76
2021/03/08 00:07:31;;;;;;;48.75;27.30;;;4.30;94.20;;;;;;5018403;28;20092;-76
2021/03/08 00:09:57;;;;;;;45.10;27.83;;;4.30;94.10;;;;;;5019476;28;20033;-76
2021/03/08 00:12:22;;;;;;;44.08;28.58;;;4.30;94.20;;;;;;5014137;28;20046;-76
2021/03/08 00:14:48;;;;;;;46.28;28.13;;;4.30;94.40;;;;;;5013608;28;20420;-75
2021/03/08 00:17:14;;;;;;;47.08;28.45;;;4.30;94.60;;;;;;5015777;28;20054;-76
2021/03/08 00:19:39;;;;;;;53.78;29.98;;;4.30;94.60;;;;;;5026774;28;20051;-76
2021/03/08 00:22:05;;;;;;;49.95;28.42;;;4.30;94.90;;;;;;5036301;28;20041;-76
2021/03/08 00:24:31;;;;;;;50.70;28.00;;;4.30;94.80;;;;;;5015495;28;20036;-75
2021/03/08 00:26:57;;;;;;;54.40;29.92;;;4.30;94.80;;;;;;5016912;28;20059;-76
2021/03/08 00:29:22;;;;;;;52.22;27.25;;;4.30;94.80;;;;;;5017917;28;20038;-76
2021/03/08 00:31:48;;;;;;;54.67;27.38;;;4.30;94.90;;;;;;5024629;28;20044;-75
2021/03/08 00:34:14;;;;;;;48.15;27.20;;;4.30;95.00;;;;;;5020442;28;20183;-75
2021/03/08 00:36:40;;;;;;;49.22;27.92;;;4.30;95.20;;;;;;5027677;28;20040;-76
2021/03/08 00:39:06;;;;;;;58.25;28.05;;;4.30;95.10;;;;;;5020809;28;20083;-76
2021/03/08 00:41:31;;;;;;;54.88;27.95;;;4.30;95.00;;;;;;5016673;28;20177;-75
2021/03/08 00:43:57;;;;;;;48.70;26.95;;;4.40;95.20;;;;;;5022490;28;20094;-76
2021/03/08 00:46:23;;;;;;;53.15;27.35;;;4.40;95.20;;;;;;5017962;28;20037;-76
2021/03/08 00:48:49;;;;;;;47.42;25.50;;;4.40;95.40;;;;;;5028579;28;20041;-76
2021/03/08 00:51:15;;;;;;;57.58;28.52;;;4.40;95.10;;;;;;5015008;28;20401;-76
2021/03/08 00:53:41;;;;;;;46.15;26.80;;;4.40;95.20;;;;;;5017772;28;20041;-76
2021/03/08 00:56:07;;;;;;;48.38;27.33;;;4.40;95.50;;;;;;5022644;28;20041;-76
2021/03/08 00:58:32;;;;;;;52.22;27.65;;;4.40;95.40;;;;;;5017223;28;20060;-76
2021/03/08 01:00:58;;;;;;;45.58;28.08;;;4.40;95.40;;;;;;5015210;28;20052;-76
2021/03/08 01:03:24;;;;;;;52.00;26.73;;;4.40;95.50;;;;;;5018513;28;20092;-76
2021/03/08 01:05:50;;;;;;;49.53;26.92;;;4.40;95.50;;;;;;5027393;28;20125;-76
2021/03/08 01:08:15;;;;;;;53.00;29.00;;;4.40;95.90;;;;;;5026043;28;20385;-76
2021/03/08 01:10:41;;;;;;;56.33;28.38;;;4.40;95.90;;;;;;5018122;28;20107;-76
2021/03/08 01:13:07;;;;;;;52.45;29.58;;;4.40;95.80;;;;;;5027415;28;20536;-76
2021/03/08 01:15:33;;;;;;;58.65;29.73;;;4.40;95.90;;;;;;5012548;28;20042;-76
2021/03/08 01:17:59;;;;;;;61.72;29.65;;;4.40;96.00;;;;;;5021463;28;20049;-76
2021/03/08 01:20:25;;;;;;;66.80;31.45;;;4.40;96.00;;;;;;5012742;28;20223;-76
2021/03/08 01:22:50;;;;;;;57.70;30.40;;;4.40;95.90;;;;;;5027827;28;20443;-76
2021/03/08 01:25:28;;;;;;;60.08;30.27;;;4.40;96.20;;;;;;5018015;28;20038;-75
2021/03/08 01:27:55;;;;;;;60.72;31.40;;;4.40;96.10;;;;;;5020655;28;20045;-76
2021/03/08 01:30:31;;;;;;;76.82;34.28;;;4.40;96.20;;;;;;5018860;28;20037;-76
2021/03/08 01:32:56;;;;;;;65.47;31.52;;;4.40;96.40;;;;;;5014114;28;20072;-76
2021/03/08 01:35:23;;;;;;;69.07;31.88;;;4.30;96.60;;;;;;5018688;28;20044;-76
2021/03/08 01:37:49;;;;;;;46.15;24.58;;;4.30;96.30;;;;;;5021605;28;20112;-76
2021/03/08 01:40:17;;;;;;;28.70;16.13;;;4.30;96.10;;;;;;5029102;28;20579;-76
2021/03/08 01:42:44;;;;;;;28.15;15.27;;;4.30;96.20;;;;;;5015218;28;20145;-75
2021/03/08 01:45:15;;;;;;;19.13;10.68;;;4.30;96.00;;;;;;5019681;28;20164;-75
2021/03/08 01:47:44;;;;;;;17.23;11.13;;;4.30;95.90;;;;;;5016965;28;20033;-75
2021/03/08 01:50:20;;;;;;;19.30;8.75;;;4.20;95.70;;;;;;5032134;28;20037;-75
2021/03/08 01:52:46;;;;;;;17.17;8.25;;;4.30;95.80;;;;;;5018702;28;20048;-75
2021/03/08 01:55:12;;;;;;;12.85;6.72;;;4.20;95.60;;;;;;5019644;28;20037;-75
2021/03/08 01:57:38;;;;;;;12.60;5.95;;;4.20;95.60;;;;;;5022478;28;20057;-75
2021/03/08 02:00:05;;;;;;;13.05;7.00;;;4.10;95.50;;;;;;5026333;28;20429;-75
2021/03/08 02:02:32;;;;;;;13.27;6.95;;;4.10;95.50;;;;;;5013335;28;20046;-75
2021/03/08 02:04:57;;;;;;;12.90;6.53;;;4.10;95.50;;;;;;5043304;28;20111;-75
2021/03/08 02:07:23;;;;;;;14.02;6.32;;;4.10;95.50;;;;;;5016413;28;20045;-75
2021/03/08 02:09:49;;;;;;;13.65;6.95;;;4.00;95.40;;;;;;5019682;28;20048;-75
2021/03/08 02:12:40;;;;;;;15.75;7.22;;;4.10;95.40;;;;;;5017081;28;20072;-75
2021/03/08 02:15:15;;;;;;;12.20;6.50;;;4.00;95.50;;;;;;5020860;28;20058;-76
2021/03/08 02:17:50;;;;;;;11.25;6.00;;;4.00;95.40;;;;;;5016824;28;20127;-76
2021/03/08 02:20:40;;;;;;;16.90;6.30;;;4.00;95.30;;;;;;5017436;28;20037;-76
2021/03/08 02:23:21;;;;;;;13.32;6.20;;;4.00;95.30;;;;;;5016632;28;20048;-76
2021/03/08 02:26:07;;;;;;;15.20;6.25;;;4.00;95.30;;;;;;5025435;28;20096;-76
2021/03/08 02:28:45;;;;;;;15.63;6.63;;;4.00;95.20;;;;;;4997413;28;20160;-76
2021/03/08 02:31:14;;;;;;;15.50;5.40;;;4.00;95.30;;;;;;5023550;28;20042;-76
2021/03/08 02:33:45;;;;;;;10.88;4.80;;;4.00;95.30;;;;;;5019614;28;20029;-76
2021/03/08 02:36:12;;;;;;;17.35;6.32;;;4.00;95.30;;;;;;5012963;28;20127;-76
2021/03/08 02:38:46;;;;;;;11.68;6.13;;;4.00;95.10;;;;;;5026783;28;20646;-76
2021/03/08 02:41:15;;;;;;;11.35;5.30;;;4.00;95.00;;;;;;5019059;28;20034;-76
2021/03/08 02:43:44;;;;;;;13.32;5.95;;;4.00;95.00;;;;;;5016481;28;20393;-76
2021/03/08 02:46:14;;;;;;;10.45;4.85;;;4.00;95.00;;;;;;5017947;28;20126;-76
2021/03/08 02:48:42;;;;;;;14.73;5.68;;;4.00;95.00;;;;;;5015824;28;20353;-76
2021/03/08 02:51:10;;;;;;;14.82;5.47;;;4.00;94.80;;;;;;5019483;28;20048;-76
2021/03/08 02:53:40;;;;;;;12.65;5.22;;;4.00;94.80;;;;;;5024483;28;20465;-76
2021/03/08 02:56:11;;;;;;;14.85;4.85;;;4.00;94.80;;;;;;5018216;28;20377;-76
2021/03/08 02:58:40;;;;;;;17.05;4.32;;;3.90;94.70;;;;;;5035397;28;20045;-76
2021/03/08 03:01:07;;;;;;;12.88;4.32;;;3.90;94.40;;;;;;5020138;28;20065;-76
2021/03/08 03:03:37;;;;;;;15.30;3.83;;;3.90;94.40;;;;;;5019830;28;20051;-76
2021/03/08 03:06:04;;;;;;;13.40;4.40;;;3.90;94.40;;;;;;5014834;28;20045;-76
2021/03/08 03:08:32;;;;;;;14.60;4.43;;;3.90;94.30;;;;;;5013451;28;20128;-76
2021/03/08 03:11:00;;;;;;;16.23;4.60;;;3.90;94.30;;;;;;5019026;28;20141;-76
2021/03/08 03:13:26;;;;;;;22.25;5.18;;;3.90;94.30;;;;;;5016337;28;20124;-76
2021/03/08 03:15:53;;;;;;;14.88;5.47;;;3.90;94.40;;;;;;5012370;28;20041;-76
2021/03/08 03:18:21;;;;;;;12.55;4.68;;;3.80;94.40;;;;;;5022052;28;20038;-76
2021/03/08 03:20:50;;;;;;;15.80;5.68;;;3.80;94.40;;;;;;5022860;28;20046;-76
2021/03/08 03:23:16;;;;;;;14.77;5.68;;;3.80;94.80;;;;;;5019149;28;20041;-76
2021/03/08 03:25:44;;;;;;;14.48;5.95;;;3.90;94.90;;;;;;5016123;28;20038;-76
2021/03/08 03:28:11;;;;;;;18.10;5.82;;;3.90;94.60;;;;;;5002514;28;20061;-76
2021/03/08 03:30:37;;;;;;;14.55;5.97;;;3.80;94.50;;;;;;5019961;28;20062;-76
2021/03/08 03:33:04;;;;;;;10.15;4.78;;;3.80;94.60;;;;;;5019009;28;20476;-76
2021/03/08 03:35:30;;;;;;;14.82;4.82;;;3.80;94.50;;;;;;5016707;28;20111;-76
2021/03/08 03:37:57;;;;;;;16.90;4.40;;;3.80;94.50;;;;;;5033900;28;20054;-76
2021/03/08 03:40:23;;;;;;;11.98;4.15;;;3.80;94.30;;;;;;5022808;28;20117;-76
2021/03/08 03:42:51;;;;;;;14.00;4.22;;;3.80;94.60;;;;;;5027941;28;20041;-76
2021/03/08 03:45:20;;;;;;;16.90;4.60;;;3.70;94.20;;;;;;5024924;28;20053;-76
2021/03/08 03:47:47;;;;;;;14.50;5.00;;;3.70;94.40;;;;;;5014150;28;20034;-75
2021/03/08 03:50:16;;;;;;;16.38;5.50;;;3.70;94.50;;;;;;5015249;28;20088;-75
2021/03/08 03:52:43;;;;;;;19.70;5.38;;;3.70;94.50;;;;;;5020664;28;20051;-75
2021/03/08 03:55:14;;;;;;;13.75;4.15;;;3.70;94.60;;;;;;5027200;28;20450;-75
2021/03/08 03:58:08;;;;;;;17.83;4.45;;;3.70;94.50;;;;;;5025138;28;20040;-75
2021/03/08 04:00:54;;;;;;;19.27;6.05;;;3.70;94.40;;;;;;5019500;28;20329;-76
2021/03/08 04:03:41;;;;;;;13.55;4.20;;;3.60;94.30;;;;;;5027920;28;20045;-76
2021/03/08 04:06:10;;;;;;;16.85;4.72;;;3.70;94.20;;;;;;5027643;28;20057;-76
2021/03/08 04:08:38;;;;;;;17.40;4.53;;;3.60;94.20;;;;;;5019000;28;20038;-76
2021/03/08 04:11:05;;;;;;;18.10;4.10;;;3.60;94.20;;;;;;5015373;28;20056;-76
2021/03/08 04:13:33;;;;;;;13.68;4.20;;;3.60;94.20;;;;;;5016003;28;20054;-76
2021/03/08 04:15:59;;;;;;;16.00;3.83;;;3.60;94.20;;;;;;5010508;28;20385;-76
2021/03/08 04:18:27;;;;;;;17.40;4.10;;;3.60;94.30;;;;;;5017670;28;20041;-77
2021/03/08 04:20:54;;;;;;;16.08;4.40;;;3.70;94.30;;;;;;5025278;28;20042;-77
2021/03/08 04:23:21;;;;;;;18.55;4.07;;;3.60;94.30;;;;;;5017756;28;20057;-77
2021/03/08 04:25:48;;;;;;;17.27;4.07;;;3.60;94.30;;;;;;5010953;28;20042;-77
2021/03/08 04:28:15;;;;;;;14.45;3.80;;;3.60;94.20;;;;;;5022629;28;20045;-75
2021/03/08 04:30:46;;;;;;;14.32;4.20;;;3.60;94.10;;;;;;5026622;28;20049;-75
2021/03/08 04:33:13;;;;;;;16.90;3.90;;;3.60;94.10;;;;;;5029925;28;20559;-75
2021/03/08 04:35:41;;;;;;;18.40;4.32;;;3.60;94.10;;;;;;5015251;28;20042;-77
2021/03/08 04:38:08;;;;;;;14.43;3.45;;;3.60;94.10;;;;;;5020388;28;20034;-75
2021/03/08 04:40:35;;;;;;;19.83;3.75;;;3.60;94.00;;;;;;5022216;28;20145;-75
2021/03/08 04:43:05;;;;;;;16.48;4.50;;;3.60;94.10;;;;;;5012355;28;20496;-77
2021/03/08 04:45:32;;;;;;;18.00;3.85;;;3.60;93.90;;;;;;5037714;28;20484;-76
2021/03/08 04:48:01;;;;;;;14.63;3.58;;;3.60;93.90;;;;;;5019316;28;20037;-76
2021/03/08 04:50:27;;;;;;;11.30;3.30;;;3.60;93.90;;;;;;5018304;28;20447;-76
2021/03/08 04:52:55;;;;;;;19.88;3.97;;;3.60;93.90;;;;;;5015763;28;20042;-76
2021/03/08 04:55:24;;;;;;;19.63;4.47;;;3.60;94.00;;;;;;5015662;28;20068;-76
2021/03/08 04:57:50;;;;;;;15.10;3.13;;;3.60;94.00;;;;;;5016854;28;20392;-77
2021/03/08 05:00:18;;;;;;;14.48;3.53;;;3.60;94.00;;;;;;5035483;28;20107;-77
2021/03/08 05:02:45;;;;;;;18.10;4.20;;;3.60;94.00;;;;;;5025447;28;20037;-77
2021/03/08 05:05:12;;;;;;;15.25;4.38;;;3.60;94.00;;;;;;5008854;28;20133;-77
2021/03/08 05:07:40;;;;;;;12.60;3.45;;;3.60;94.00;;;;;;5018334;28;20315;-76
2021/03/08 05:10:11;;;;;;;13.35;3.75;;;3.60;94.10;;;;;;5017341;28;20069;-76
2021/03/08 05:12:39;;;;;;;18.88;4.60;;;3.60;94.10;;;;;;5017202;28;20072;-76
2021/03/08 05:15:08;;;;;;;17.02;4.93;;;3.60;94.10;;;;;;5018301;28;20128;-76
2021/03/08 05:17:36;;;;;;;14.48;3.25;;;3.60;93.90;;;;;;5019714;28;20052;-76
2021/03/08 05:20:05;;;;;;;21.58;3.97;;;3.60;94.10;;;;;;5024667;28;20048;-77
2021/03/08 05:22:37;;;;;;;14.48;4.30;;;3.50;93.80;;;;;;5011107;28;20363;-77
2021/03/08 05:25:04;;;;;;;22.92;3.72;;;3.50;94.20;;;;;;5026128;28;20038;-77
2021/03/08 05:27:31;;;;;;;10.40;2.90;;;3.50;93.90;;;;;;5026709;28;20080;-77
2021/03/08 05:29:59;;;;;;;15.90;3.92;;;3.50;94.00;;;;;;5022167;28;20473;-77
2021/03/08 05:32:36;;;;;;;19.80;4.15;;;3.50;94.00;;;;;;5019434;28;20108;-77
2021/03/08 05:35:02;;;;;;;15.07;3.75;;;3.50;94.10;;;;;;5025835;28;20069;-77
2021/03/08 05:37:29;;;;;;;15.45;4.70;;;3.50;94.20;;;;;;5016048;28;20500;-77
2021/03/08 05:39:58;;;;;;;13.85;4.82;;;3.50;94.20;;;;;;4999717;28;20168;-77
2021/03/08 05:42:28;;;;;;;15.55;4.47;;;3.50;94.20;;;;;;5015632;28;20429;-77
2021/03/08 05:45:08;;;;;;;17.58;4.03;;;3.50;94.30;;;;;;5030920;28;20104;-77
2021/03/08 05:48:11;;;;;;;23.00;3.95;;;3.50;94.20;;;;;;5018779;28;20433;-78
2021/03/08 05:51:03;;;;;;;15.85;4.13;;;3.50;94.20;;;;;;5036226;28;20044;-77
2021/03/08 05:54:01;;;;;;;17.33;3.78;;;3.50;94.20;;;;;;5031803;28;20411;-77
2021/03/08 05:56:47;;;;;;;15.45;3.08;;;3.50;94.30;;;;;;5040954;28;20026;-77
2021/03/08 05:59:37;;;;;;;16.38;3.83;;;3.50;94.30;;;;;;5014593;28;20109;-77
2021/03/08 06:02:34;;;;;;;21.60;4.57;;;3.50;94.30;;;;;;5020361;28;20045;-77
2021/03/08 06:05:37;;;;;;;17.05;3.55;;;3.50;94.30;;;;;;5019319;28;20116;-77
2021/03/08 06:08:22;;;;;;;17.05;4.57;;;3.50;94.30;;;;;;5024785;28;20345;-76
2021/03/08 06:11:14;;;;;;;12.77;3.27;;;3.40;94.30;;;;;;5023051;28;20033;-77
2021/03/08 06:13:55;;;;;;;15.32;3.83;;;3.40;94.30;;;;;;5011582;28;20040;-76
2021/03/08 06:16:32;;;;;;;13.27;3.03;;;3.40;94.30;;;;;;5034622;28;20056;-76
2021/03/08 06:18:59;;;;;;;15.57;3.10;;;3.40;94.30;;;;;;5031217;28;20225;-77
2021/03/08 06:21:26;;;;;;;12.48;3.95;;;3.40;94.40;;;;;;5019551;28;20114;-77
2021/03/08 06:23:53;;;;;;;20.90;4.20;;;3.40;94.40;;;;;;5023051;28;20124;-76
2021/03/08 06:26:20;;;;;;;16.70;3.70;;;3.50;94.40;;;;;;5023427;28;20080;-77
2021/03/08 06:28:46;;;;;;;19.25;4.13;;;3.50;94.40;;;;;;5016095;28;20029;-77
2021/03/08 06:31:12;;;;;;;15.35;3.83;;;3.40;94.40;;;;;;5017944;28;20076;-76
2021/03/08 06:33:38;;;;;;;25.98;4.15;;;3.40;94.40;;;;;;5021441;28;20460;-76
2021/03/08 06:36:05;;;;;;;15.50;3.58;;;3.50;94.50;;;;;;5020474;28;20064;-76
2021/03/08 06:38:32;;;;;;;15.77;3.40;;;3.50;94.50;;;;;;5024784;28;20104;-75
2021/03/08 06:40:59;;;;;;;20.98;4.82;;;3.50;94.50;;;;;;5029198;28;20065;-75
2021/03/08 06:43:29;;;;;;;15.90;4.13;;;3.50;94.60;;;;;;5014796;28;20049;-75
2021/03/08 06:45:56;;;;;;;14.32;4.07;;;3.60;94.60;;;;;;5018978;28;20065;-75
2021/03/08 06:48:22;;;;;;;20.13;3.83;;;3.50;94.50;;;;;;5017657;28;20033;-75
2021/03/08 06:51:17;;;;;;;18.92;4.15;;;3.50;94.60;;;;;;5027499;28;20582;-76
2021/03/08 06:53:45;;;;;;;19.30;4.07;;;3.60;94.50;;;;;;5023260;28;20120;-75
2021/03/08 06:56:22;;;;;;;18.60;3.80;;;3.50;94.50;;;;;;5023574;28;20033;-77
2021/03/08 06:59:12;;;;;;;16.02;4.40;;;3.60;94.50;;;;;;5024561;28;20493;-76
2021/03/08 07:01:42;;;;;;;19.58;3.90;;;3.60;94.40;;;;;;5023900;28;20124;-77
2021/03/08 07:04:13;;;;;;;20.83;3.60;;;3.60;94.30;;;;;;5014734;28;20058;-79
2021/03/08 07:06:39;;;;;;;16.80;5.07;;;3.70;94.40;;;;;;5018005;28;20041;-78
2021/03/08 07:09:07;;;;;;;17.33;4.72;;;3.70;94.40;;;;;;5025807;28;20045;-76
2021/03/08 07:11:34;;;;;;;21.15;4.68;;;3.70;94.40;;;;;;5028374;28;20069;-76
2021/03/08 07:14:00;;;;;;;21.50;4.80;;;3.80;94.60;;;;;;5023345;28;20412;-77
2021/03/08 07:16:38;;;;;;;20.00;4.32;;;3.80;94.60;;;;;;5020388;28;20200;-77
2021/03/08 07:19:07;;;;;;;21.95;5.97;;;3.90;94.60;;;;;;5017617;28;20058;-76
2021/03/08 07:21:33;;;;;;;21.20;5.35;;;3.90;94.50;;;;;;5030021;28;20426;-77
2021/03/08 07:24:15;;;;;;;18.45;4.60;;;3.90;94.50;;;;;;5013813;28;20053;-75
2021/03/08 07:27:08;;;;;;;17.10;4.38;;;4.00;94.60;;;;;;5016355;28;20052;-76
2021/03/08 07:29:33;;;;;;;20.15;4.40;;;4.00;94.40;;;;;;5020957;28;20052;-76
2021/03/08 07:32:11;;;;;;;19.85;4.43;;;4.00;94.40;;;;;;5012913;28;20107;-76
2021/03/08 07:34:46;;;;;;;21.05;5.03;;;4.00;94.30;;;;;;5029637;28;20125;-75
2021/03/08 07:37:12;;;;;;;15.20;4.68;;;4.10;94.30;;;;;;5022212;28;20559;-75
2021/03/08 07:39:53;;;;;;;17.98;4.65;;;4.10;94.40;;;;;;5031359;28;20045;-75
2021/03/08 07:42:19;;;;;;;11.85;3.95;;;4.20;94.30;;;;;;5022295;28;20144;-75
2021/03/08 07:44:51;;;;;;;21.95;4.25;;;4.20;94.10;;;;;;5027809;28;20493;-76
2021/03/08 07:47:19;;;;;;;21.55;5.45;;;4.30;94.10;;;;;;5022903;28;20037;-76
2021/03/08 07:49:45;;;;;;;21.98;5.28;;;4.30;94.10;;;;;;5011834;28;20478;-76
2021/03/08 07:52:13;;;;;;;16.20;4.75;;;4.40;94.10;;;;;;5016165;28;20041;-76
2021/03/08 07:54:56;;;;;;;15.02;4.15;;;4.40;94.30;;;;;;5012883;28;20041;-76
2021/03/08 07:57:25;;;;;;;18.67;4.35;;;4.50;94.00;;;;;;5014920;28;20048;-76
2021/03/08 07:59:51;;;;;;;16.30;4.03;;;4.50;93.60;;;;;;5011885;28;20402;-76
2021/03/08 08:02:17;;;;;;;21.42;4.60;;;4.50;93.30;;;;;;5016090;28;20073;-75
2021/03/08 08:04:43;;;;;;;21.75;4.80;;;4.60;93.40;;;;;;5042177;28;20142;-75
2021/03/08 08:07:12;;;;;;;16.23;4.78;;;4.60;93.90;;;;;;5020284;28;20041;-76
2021/03/08 08:09:40;;;;;;;21.40;4.60;;;4.80;93.90;;;;;;5030804;28;20041;-76
2021/03/08 08:12:21;;;;;;;16.77;4.93;;;5.10;93.90;;;;;;5029169;28;20047;-76
2021/03/08 08:14:50;;;;;;;20.02;4.60;;;5.30;93.80;;;;;;5023417;28;20053;-76
2021/03/08 08:17:20;;;;;;;26.00;5.53;;;5.60;92.90;;;;;;5016278;28;20373;-76
2021/03/08 08:19:48;;;;;;;13.13;4.25;;;5.60;92.10;;;;;;5029650;28;20033;-77
2021/03/08 08:22:20;;;;;;;21.50;5.53;;;5.90;92.40;;;;;;5013329;28;20049;-76
2021/03/08 08:24:48;;;;;;;18.48;5.70;;;6.00;91.80;;;;;;5025560;28;20041;-76
2021/03/08 08:27:16;;;;;;;20.75;4.53;;;6.20;91.80;;;;;;5030325;28;20080;-77
2021/03/08 08:29:45;;;;;;;16.00;3.85;;;6.30;90.80;;;;;;5011240;28;20157;-77
2021/03/08 08:32:10;;;;;;;12.75;3.58;;;6.20;90.00;;;;;;5020504;28;20038;-77
2021/03/08 08:34:39;;;;;;;16.58;4.53;;;6.20;89.80;;;;;;5023196;28;20045;-77
2021/03/08 08:37:19;;;;;;;21.08;4.53;;;6.30;90.10;;;;;;5018767;28;20041;-78
2021/03/08 08:39:51;;;;;;;15.05;3.65;;;6.30;87.60;;;;;;5031368;28;20140;-77
2021/03/08 08:42:23;;;;;;;15.13;4.15;;;6.30;87.40;;;;;;5033169;28;20385;-77
2021/03/08 08:44:51;;;;;;;18.17;4.75;;;6.30;86.70;;;;;;5015545;28;20036;-76
2021/03/08 08:47:26;;;;;;;17.58;3.90;;;6.20;87.90;;;;;;5017145;28;20115;-76
2021/03/08 08:49:55;;;;;;;27.02;13.05;;;6.20;86.80;;;;;;5015834;28;20041;-76
2021/03/08 08:52:52;;;;;;;20.13;4.20;;;6.20;85.60;;;;;;5009607;28;20104;-76
2021/03/08 08:55:21;;;;;;;14.93;3.25;;;6.20;85.80;;;;;;5033210;28;20062;-77
2021/03/08 08:58:21;;;;;;;14.45;2.97;;;6.20;86.20;;;;;;5015939;28;20037;-76
2021/03/08 09:01:09;;;;;;;12.52;2.25;;;6.20;84.30;;;;;;5017250;28;20489;-76
2021/03/08 09:04:00;;;;;;;12.13;3.28;;;6.20;83.20;;;;;;5015388;28;20100;-76
2021/03/08 09:06:47;;;;;;;18.63;3.13;;;6.20;81.90;;;;;;5020489;28;20057;-75
2021/03/08 09:09:21;;;;;;;16.15;2.95;;;6.20;81.40;;;;;;5009314;28;20394;-75
2021/03/08 09:11:56;;;;;;;17.80;2.60;;;6.10;82.00;;;;;;5012796;28;20405;-75
2021/03/08 09:14:36;;;;;;;17.77;3.20;;;6.20;82.80;;;;;;5010205;28;20076;-75
2021/03/08 09:17:09;;;;;;;13.15;2.85;;;6.20;82.00;;;;;;5023546;28;20187;-73
2021/03/08 09:19:35;;;;;;;14.30;3.25;;;6.30;82.20;;;;;;5013765;28;20089;-74
2021/03/08 09:22:20;;;;;;;14.93;2.78;;;6.30;81.90;;;;;;5027140;28;20131;-76
2021/03/08 09:24:47;;;;;;;12.98;3.28;;;6.40;81.50;;;;;;5011630;28;20037;-76
2021/03/08 09:27:29;;;;;;;15.23;3.83;;;6.50;80.60;;;;;;5022555;28;20446;-76
2021/03/08 09:30:11;;;;;;;12.32;2.90;;;6.50;79.50;;;;;;5021338;28;20658;-76
2021/03/08 09:32:53;;;;;;;14.52;3.33;;;6.60;81.20;;;;;;5013459;28;20038;-76
2021/03/08 09:35:25;;;;;;;12.52;2.80;;;6.70;80.60;;;;;;5024075;28;20049;-75
2021/03/08 09:37:55;;;;;;;14.07;3.65;;;6.70;80.50;;;;;;5031504;28;20057;-76
2021/03/08 09:40:23;;;;;;;10.93;2.72;;;6.80;82.20;;;;;;5028483;28;20157;-75
2021/03/08 09:42:50;;;;;;;13.52;3.00;;;6.90;81.50;;;;;;5031939;28;20061;-75
2021/03/08 09:45:25;;;;;;;16.83;3.90;;;6.90;80.20;;;;;;5016743;28;20120;-75
2021/03/08 09:47:51;;;;;;;;;;;7.00;79.70;;;;;;5031005;28;20053;-75
2021/03/08 09:50:29;;;;;;;14.02;2.95;;;7.00;76.60;;;;;;5026296;28;19932;-76
2021/03/08 09:52:56;;;;;;;13.70;2.85;;;7.00;78.50;;;;;;5027807;28;20454;-75
2021/03/08 09:55:28;;;;;;;14.65;3.72;;;7.00;78.20;;;;;;5026913;28;20057;-76
2021/03/08 09:57:54;;;;;;;11.43;3.25;;;7.00;77.70;;;;;;5020119;28;20092;-76
2021/03/08 10:00:26;;;;;;;11.35;2.90;;;7.00;78.10;;;;;;5013312;28;20049;-76
2021/03/08 10:03:00;;;;;;;13.00;3.30;;;7.10;78.40;;;;;;5032325;28;20041;-75
2021/03/08 10:05:49;;;;;;;15.13;3.40;;;7.10;78.50;;;;;;5029600;28;20054;-76
2021/03/08 10:08:17;;;;;;;17.08;4.25;;;7.20;76.40;;;;;;5013598;28;20046;-75
2021/03/08 10:10:53;;;;;;;12.52;3.15;;;7.10;77.80;;;;;;5011129;28;20034;-75
2021/03/08 10:13:20;;;;;;;11.48;3.20;;;7.10;77.50;;;;;;5021284;28;20053;-74
2021/03/08 10:15:57;;;;;;;11.40;2.95;;;7.10;76.50;;;;;;5022410;28;20053;-76
2021/03/08 10:18:25;;;;;;;12.23;3.25;;;7.10;77.50;;;;;;5013133;28;20033;-76
2021/03/08 10:21:04;;;;;;;14.27;3.92;;;7.10;77.00;;;;;;5025440;28;20053;-76
2021/03/08 10:23:32;;;;;;;16.13;4.03;;;7.20;77.90;;;;;;5031088;28;20060;-76
2021/03/08 10:26:13;;;;;;;13.52;3.65;;;7.30;78.10;;;;;;5022675;28;20489;-76
2021/03/08 10:28:50;;;;;;;10.10;3.30;;;7.30;76.40;;;;;;5029858;28;20559;-76
2021/03/08 10:31:24;;;;;;;13.55;4.47;;;7.40;77.50;;;;;;5020005;28;20034;-76
2021/03/08 10:34:10;;;;;;;16.15;4.05;;;7.40;77.50;;;;;;5028058;28;20064;-76
2021/03/08 10:36:40;;;;;;;15.32;3.72;;;7.40;77.50;;;;;;5031576;28;20099;-74
2021/03/08 10:39:13;;;;;;;15.60;3.55;;;7.40;77.10;;;;;;5013324;28;20065;-75
2021/03/08 10:41:42;;;;;;;11.88;3.38;;;7.50;75.80;;;;;;5020220;28;20064;-75
2021/03/08 10:44:08;;;;;;;11.82;3.03;;;7.50;75.90;;;;;;5011973;28;20084;-75
2021/03/08 10:46:39;;;;;;;11.57;3.45;;;7.50;75.40;;;;;;5022254;28;20394;-77
2021/03/08 10:49:08;;;;;;;10.30;2.92;;;7.60;75.90;;;;;;5028062;28;20576;-76
2021/03/08 10:51:36;;;;;;;13.15;3.30;;;7.60;75.20;;;;;;5012844;28;20145;-76
2021/03/08 10:54:05;;;;;;;11.10;3.33;;;7.70;74.80;;;;;;5024589;28;20492;-75
2021/03/08 10:56:36;;;;;;;9.07;2.38;;;7.80;75.20;;;;;;5025873;28;20048;-75
2021/03/08 10:59:03;;;;;;;11.73;3.30;;;7.90;74.90;;;;;;5020600;28;20053;-76
2021/03/08 11:01:30;;;;;;;14.95;6.22;;;7.90;74.10;;;;;;5015150;28;20602;-78
2021/03/08 11:03:56;;;;;;;9.63;3.05;;;7.90;74.40;;;;;;5037366;28;20132;-76
2021/03/08 11:06:24;;;;;;;11.48;3.30;;;7.90;73.80;;;;;;5031131;28;20034;-76
2021/03/08 11:09:00;;;;;;;14.35;3.65;;;7.80;74.80;;;;;;5015661;28;20164;-75
2021/03/08 11:11:34;;;;;;;10.35;3.30;;;7.90;75.40;;;;;;5012362;28;20517;-77
2021/03/08 11:14:02;;;;;;;13.20;3.90;;;7.90;74.50;;;;;;5025994;28;20428;-76
2021/03/08 11:16:29;;;;;;;12.35;3.60;;;8.00;74.90;;;;;;5019273;28;20057;-75
2021/03/08 11:19:33;;;;;;;12.95;4.35;;;8.00;73.30;;;;;;5015476;28;20068;-76
2021/03/08 11:22:13;;;;;;;10.15;3.90;;;8.20;71.50;;;;;;4968493;28;20130;-76
2021/03/08 11:24:41;;;;;;;10.10;3.45;;;8.20;72.80;;;;;;4984810;28;20552;-76
2021/03/08 11:27:09;;;;;;;11.25;3.58;;;8.10;72.40;;;;;;5008906;28;20069;-76
2021/03/08 11:29:35;;;;;;;12.95;3.85;;;8.10;73.30;;;;;;5026324;28;20029;-77
2021/03/08 11:32:00;;;;;;;12.73;3.88;;;8.20;73.90;;;;;;5026111;28;20127;-76
2021/03/08 11:34:39;;;;;;;12.18;3.80;;;8.30;72.90;;;;;;5017863;28;20100;-76
2021/03/08 11:37:09;;;;;;;11.60;4.30;;;8.30;73.10;;;;;;5020194;28;20029;-77
2021/03/08 11:39:43;;;;;;;11.07;4.20;;;8.30;73.30;;;;;;5022608;28;20041;-77
2021/03/08 11:42:09;;;;;;;14.50;4.60;;;8.30;72.50;;;;;;5015197;28;20042;-76
2021/03/08 11:44:36;;;;;;;10.88;3.95;;;8.20;73.20;;;;;;5016574;28;20042;-77
2021/03/08 11:47:02;;;;;;;15.98;5.05;;;8.20;73.20;;;;;;5009089;28;20046;-77
2021/03/08 11:49:28;;;;;;;13.38;4.85;;;8.10;73.30;;;;;;5019071;28;20037;-77
2021/03/08 11:51:54;;;;;;;14.50;4.57;;;8.10;72.60;;;;;;5026334;28;20042;-78
2021/03/08 11:54:19;;;;;;;13.63;4.65;;;8.10;73.00;;;;;;5033821;28;20050;-78
2021/03/08 11:56:47;;;;;;;12.43;4.32;;;8.00;71.70;;;;;;5027290;28;20071;-79
2021/03/08 11:59:13;;;;;;;12.38;4.35;;;8.00;72.10;;;;;;5036865;28;20034;-78
2021/03/08 12:01:39;;;;;;;11.60;4.65;;;7.90;72.80;;;;;;5020340;28;20038;-77
2021/03/08 12:04:05;;;;;;;16.40;5.63;;;8.00;72.40;;;;;;5012379;28;20045;-77
2021/03/08 12:06:31;;;;;;;10.20;4.47;;;8.10;73.10;;;;;;5019007;28;20058;-79
2021/03/08 12:08:56;;;;;;;11.07;4.85;;;8.20;72.00;;;;;;5022362;28;20481;-77
2021/03/08 12:11:22;;;;;;;13.57;4.75;;;8.30;73.40;;;;;;5016563;28;20362;-78
2021/03/08 12:13:48;;;;;;;10.10;3.80;;;8.50;72.20;;;;;;5029550;28;20380;-78
2021/03/08 12:16:14;;;;;;;12.65;3.92;;;8.70;72.30;;;;;;5025486;28;20049;-78
2021/03/08 12:18:40;;;;;;;10.48;3.38;;;8.90;71.20;;;;;;5030597;28;20510;-78
2021/03/08 12:21:06;;;;;;;9.20;3.42;;;9.00;70.20;;;;;;5024255;28;20046;-79
2021/03/08 12:23:32;;;;;;;10.40;3.28;;;9.00;70.00;;;;;;5025697;28;20052;-79
2021/03/08 12:26:00;;;;;;;9.45;3.00;;;9.00;70.40;;;;;;5029332;28;20049;-79
2021/03/08 12:28:27;;;;;;;10.63;3.47;;;9.10;69.80;;;;;;5014625;28;20053;-79
2021/03/08 12:30:53;;;;;;;9.65;3.22;;;9.00;69.10;;;;;;5009231;28;20164;-79
2021/03/08 12:33:20;;;;;;;22.83;12.35;;;8.90;67.80;;;;;;4993750;28;20104;-78
2021/03/08 12:35:47;;;;;;;12.13;3.85;;;8.70;68.70;;;;;;5026344;28;20117;-78
2021/03/08 12:38:13;;;;;;;10.80;3.20;;;8.70;69.70;;;;;;5022379;28;20038;-79
2021/03/08 12:40:38;;;;;;;11.57;3.38;;;8.60;70.30;;;;;;5011756;28;20411;-79
2021/03/08 12:43:04;;;;;;;9.95;3.50;;;8.60;70.80;;;;;;5021967;28;20057;-78
2021/03/08 12:45:30;;;;;;;11.50;4.13;;;8.70;70.60;;;;;;5031706;28;20413;-78
2021/03/08 12:47:58;;;;;;;11.95;3.78;;;8.60;70.10;;;;;;5010816;28;20042;-76
2021/03/08 12:50:24;;;;;;;17.40;3.72;;;8.70;70.10;;;;;;5010981;28;20511;-78
2021/03/08 12:52:50;;;;;;;12.35;3.47;;;8.70;70.70;;;;;;5037333;28;20141;-78
2021/03/08 12:55:16;;;;;;;12.27;3.60;;;8.70;70.50;;;;;;5018475;28;20114;-77
2021/03/08 12:57:43;;;;;;;13.23;4.00;;;8.70;70.50;;;;;;5016450;28;20117;-77
2021/03/08 13:00:10;;;;;;;11.30;4.35;;;8.60;70.50;;;;;;5032774;28;20563;-77
2021/03/08 13:02:36;;;;;;;8.98;3.05;;;8.60;70.50;;;;;;5018328;28;20536;-77